createdAt,value
2023-03-03T00:00:07.717Z,26.07
2023-03-03T00:02:43.304Z,25.97
2023-03-03T00:05:10.530Z,26.90
2023-03-03T00:07:37.218Z,30.20
2023-03-03T00:10:04.249Z,28.37
2023-03-03T00:12:31.220Z,30.17
2023-03-03T00:14:58.173Z,28.50
2023-03-03T00:17:27.554Z,26.73
2023-03-03T00:19:54.737Z,25.93
2023-03-03T00:22:36.374Z,25.47
2023-03-03T00:25:29.515Z,27.27
2023-03-03T00:28:01.375Z,27.13
2023-03-03T00:30:29.114Z,27.27
2023-03-03T00:32:55.960Z,26.97
2023-03-03T00:35:30.740Z,26.83
2023-03-03T00:38:04.486Z,27.00
2023-03-03T00:40:38.197Z,26.97
2023-03-03T00:43:24.233Z,25.50
2023-03-03T00:45:53.035Z,27.17
2023-03-03T00:48:20.022Z,27.57
2023-03-03T00:50:46.663Z,26.93
2023-03-03T00:53:18.982Z,25.93
2023-03-03T00:55:47.787Z,24.47
2023-03-03T00:58:14.741Z,26.07
2023-03-03T01:00:44.822Z,27.10
2023-03-03T01:03:25.037Z,27.00
2023-03-03T01:05:52.997Z,27.33
2023-03-03T01:08:20.938Z,26.20
2023-03-03T01:10:57.332Z,27.57
2023-03-03T01:13:27.447Z,28.67
2023-03-03T01:15:54.610Z,27.07
2023-03-03T01:18:21.745Z,26.37
2023-03-03T01:20:48.325Z,26.77
2023-03-03T01:23:14.992Z,25.77
2023-03-03T01:25:41.807Z,25.40
2023-03-03T01:28:08.560Z,28.53
2023-03-03T01:30:35.399Z,27.93
2023-03-03T01:33:02.177Z,27.17
2023-03-03T01:35:29.993Z,28.40
2023-03-03T01:37:57.155Z,28.87
2023-03-03T01:40:27.412Z,28.63
2023-03-03T01:42:54.340Z,27.50
2023-03-03T01:45:27.201Z,27.40
2023-03-03T01:48:10.521Z,27.37
2023-03-03T01:50:40.909Z,27.03
2023-03-03T01:53:13.605Z,26.80
2023-03-03T01:55:41.935Z,26.53
2023-03-03T01:58:13.861Z,27.33
2023-03-03T02:00:44.537Z,27.93
2023-03-03T02:03:11.902Z,26.53
2023-03-03T02:05:41.980Z,27.50
2023-03-03T02:08:16.133Z,29.23
2023-03-03T02:10:45.582Z,29.47
2023-03-03T02:13:12.435Z,27.93
2023-03-03T02:15:39.296Z,26.87
2023-03-03T02:18:15.683Z,27.57
2023-03-03T02:21:00.159Z,27.60
2023-03-03T02:23:34.365Z,27.57
2023-03-03T02:26:13.071Z,25.90
2023-03-03T02:28:40.653Z,25.53
2023-03-03T02:31:13.463Z,25.03
2023-03-03T02:33:43.003Z,25.00
2023-03-03T02:36:19.619Z,24.83
2023-03-03T02:39:08.907Z,25.40
2023-03-03T02:41:40.539Z,25.80
2023-03-03T02:44:17.912Z,27.20
2023-03-03T02:46:49.319Z,27.57
2023-03-03T02:49:19.824Z,27.80
2023-03-03T02:51:46.448Z,26.10
2023-03-03T02:54:15.170Z,23.80
2023-03-03T02:56:42.085Z,22.67
2023-03-03T02:59:09.066Z,22.40
2023-03-03T03:01:40.978Z,22.67
2023-03-03T03:04:15.295Z,22.83
2023-03-03T03:06:44.975Z,21.60
2023-03-03T03:09:14.462Z,20.60
2023-03-03T03:11:41.797Z,20.77
2023-03-03T03:14:11.578Z,20.60
2023-03-03T03:16:40.102Z,19.50
2023-03-03T03:19:07.228Z,19.13
2023-03-03T03:21:35.206Z,20.83
2023-03-03T03:24:02.614Z,19.77
2023-03-03T03:26:29.547Z,20.63
2023-03-03T03:28:56.799Z,19.73
2023-03-03T03:31:23.599Z,19.53
2023-03-03T03:33:50.421Z,16.57
2023-03-03T03:36:17.638Z,16.73
2023-03-03T03:38:44.403Z,17.77
2023-03-03T03:41:12.754Z,20.40
2023-03-03T03:43:39.987Z,19.30
2023-03-03T03:46:07.405Z,17.83
2023-03-03T03:48:34.946Z,16.73
2023-03-03T03:51:03.914Z,11.93
2023-03-03T03:53:31.928Z,11.60
2023-03-03T03:55:58.889Z,12.37
2023-03-03T03:58:25.991Z,12.67
2023-03-03T04:01:03.901Z,11.83
2023-03-03T04:03:31.201Z,12.37
2023-03-03T04:05:57.898Z,11.30
2023-03-03T04:08:25.067Z,11.63
2023-03-03T04:10:51.837Z,12.00
2023-03-03T04:13:18.558Z,13.23
2023-03-03T04:15:45.316Z,16.57
2023-03-03T04:18:12.240Z,17.17
2023-03-03T04:20:40.378Z,17.17
2023-03-03T04:23:07.592Z,18.37
2023-03-03T04:25:34.359Z,17.63
2023-03-03T04:28:03.575Z,18.77
2023-03-03T04:30:33.040Z,15.90
2023-03-03T04:32:59.760Z,16.80
2023-03-03T04:35:27.632Z,16.53
2023-03-03T04:37:54.507Z,16.17
2023-03-03T04:40:21.268Z,15.90
2023-03-03T04:42:50.210Z,16.33
2023-03-03T04:45:17.500Z,16.53
2023-03-03T04:47:45.426Z,18.50
2023-03-03T04:50:12.803Z,17.77
2023-03-03T04:52:40.539Z,17.10
2023-03-03T04:55:10.574Z,16.57
2023-03-03T04:57:38.736Z,15.43
2023-03-03T05:00:06.656Z,15.00
2023-03-03T05:02:33.349Z,14.43
2023-03-03T05:05:00.735Z,13.40
2023-03-03T05:07:27.354Z,13.40
2023-03-03T05:09:54.008Z,14.77
2023-03-03T05:12:21.195Z,14.73
2023-03-03T05:14:48.384Z,14.93
2023-03-03T05:17:15.089Z,16.43
2023-03-03T05:19:41.716Z,15.53
2023-03-03T05:22:08.357Z,15.17
2023-03-03T05:24:34.939Z,15.27
2023-03-03T05:27:03.329Z,14.43
2023-03-03T05:29:31.530Z,14.33
2023-03-03T05:31:58.592Z,10.77
2023-03-03T05:34:25.517Z,11.87
2023-03-03T05:36:52.203Z,11.67
2023-03-03T05:39:18.831Z,10.73
2023-03-03T05:41:45.478Z,11.93
2023-03-03T05:44:12.869Z,13.80
2023-03-03T05:46:39.820Z,13.80
2023-03-03T05:49:06.448Z,13.73
2023-03-03T05:51:33.145Z,13.20
2023-03-03T05:54:02.918Z,13.03
2023-03-03T05:56:29.538Z,12.13
2023-03-03T05:58:56.331Z,11.07
2023-03-03T06:01:23.006Z,11.57
2023-03-03T06:03:49.748Z,11.60
2023-03-03T06:06:17.102Z,11.27
2023-03-03T06:08:43.752Z,12.47
2023-03-03T06:11:10.634Z,12.07
2023-03-03T06:13:37.356Z,12.53
2023-03-03T06:16:04.204Z,13.20
2023-03-03T06:18:30.848Z,12.93
2023-03-03T06:20:57.529Z,12.93
2023-03-03T06:23:24.139Z,12.93
2023-03-03T06:25:50.868Z,13.43
2023-03-03T06:28:17.467Z,12.43
2023-03-03T06:30:44.197Z,12.37
2023-03-03T06:33:11.335Z,10.47
2023-03-03T06:35:38.980Z,11.90
2023-03-03T06:38:06.717Z,11.53
2023-03-03T06:40:33.377Z,11.27
2023-03-03T06:43:02.336Z,11.53
2023-03-03T06:45:29.299Z,12.43
2023-03-03T06:47:56.008Z,12.03
2023-03-03T06:50:22.733Z,10.27
2023-03-03T06:52:50.260Z,10.20
2023-03-03T06:55:23.160Z,9.57
2023-03-03T06:57:49.806Z,9.63
2023-03-03T07:00:24.755Z,9.37
2023-03-03T07:03:08.139Z,9.40
2023-03-03T07:05:34.881Z,9.83
2023-03-03T07:08:01.683Z,11.17
2023-03-03T07:10:30.495Z,12.77
2023-03-03T07:13:06.981Z,13.33
2023-03-03T07:15:35.352Z,13.57
2023-03-03T07:18:03.210Z,13.17
2023-03-03T07:20:39.389Z,10.60
2023-03-03T07:23:42.347Z,9.50
2023-03-03T07:26:17.132Z,10.07
2023-03-03T07:28:58.842Z,10.20
2023-03-03T07:31:39.147Z,10.33
2023-03-03T07:34:37.286Z,10.70
2023-03-03T07:37:13.246Z,10.83
2023-03-03T07:39:44.747Z,11.80
2023-03-03T07:42:33.279Z,11.73
2023-03-03T07:45:32.399Z,12.53
2023-03-03T07:48:25.486Z,12.87
2023-03-03T07:50:52.702Z,11.87
2023-03-03T07:53:25.878Z,13.63
2023-03-03T07:55:52.579Z,12.93
2023-03-03T07:58:33.821Z,12.63
2023-03-03T08:01:36.160Z,12.83
2023-03-03T08:04:07.394Z,12.83
2023-03-03T08:06:44.377Z,12.80
2023-03-03T08:09:10.914Z,13.27
2023-03-03T08:11:52.055Z,13.63
2023-03-03T08:14:27.984Z,15.30
2023-03-03T08:16:55.700Z,14.60
2023-03-03T08:19:23.115Z,13.23
2023-03-03T08:21:50.178Z,13.13
2023-03-03T08:24:16.779Z,14.07
2023-03-03T08:26:43.927Z,12.77
2023-03-03T08:29:11.952Z,12.53
2023-03-03T08:31:41.593Z,12.03
2023-03-03T08:34:08.732Z,11.70
2023-03-03T08:36:35.376Z,11.80
2023-03-03T08:39:04.192Z,11.75
2023-03-03T08:41:30.822Z,11.45
2023-03-03T08:43:57.552Z,11.43
2023-03-03T08:46:24.372Z,10.75
2023-03-03T08:48:51.409Z,10.85
2023-03-03T08:51:18.070Z,11.00
2023-03-03T08:53:44.835Z,11.88
2023-03-03T08:56:11.438Z,11.75
2023-03-03T08:58:41.984Z,11.55
2023-03-03T09:01:11.830Z,11.80
2023-03-03T09:03:38.459Z,11.95
2023-03-03T09:06:05.303Z,12.07
2023-03-03T09:08:32.155Z,10.98
2023-03-03T09:10:59.172Z,11.50
2023-03-03T09:13:27.256Z,12.05
2023-03-03T09:15:54.073Z,11.60
2023-03-03T09:18:26.102Z,12.20
2023-03-03T09:20:57.382Z,12.20
2023-03-03T09:23:24.165Z,13.00
2023-03-03T09:25:52.117Z,11.90
2023-03-03T09:28:22.712Z,11.90
2023-03-03T09:30:51.057Z,12.35
2023-03-03T09:33:23.951Z,12.30
2023-03-03T09:36:05.880Z,12.20
2023-03-03T09:38:34.227Z,11.95
2023-03-03T09:41:28.519Z,12.88
2023-03-03T09:44:04.786Z,12.50
2023-03-03T09:47:05.483Z,12.15
2023-03-03T09:49:34.912Z,12.80
2023-03-03T09:52:23.925Z,13.60
2023-03-03T09:54:55.006Z,13.70
2023-03-03T09:57:42.015Z,13.20
2023-03-03T10:00:30.351Z,13.38
2023-03-03T10:02:59.777Z,13.48
2023-03-03T10:05:41.273Z,13.38
2023-03-03T10:08:42.483Z,13.73
2023-03-03T10:11:23.454Z,12.77
2023-03-03T10:14:02.021Z,13.02
2023-03-03T10:16:44.669Z,14.43
2023-03-03T10:19:34.239Z,14.05
2023-03-03T10:22:08.007Z,13.45
2023-03-03T10:24:55.625Z,14.57
2023-03-03T10:27:28.290Z,14.80
2023-03-03T10:30:10.190Z,15.02
2023-03-03T10:32:55.173Z,14.43
2023-03-03T10:35:47.097Z,14.30
2023-03-03T10:38:49.812Z,14.07
2023-03-03T10:41:39.765Z,14.88
2023-03-03T10:44:21.744Z,14.65
2023-03-03T10:46:51.533Z,14.48
2023-03-03T10:49:42.443Z,15.45
2023-03-03T10:52:31.478Z,14.32
2023-03-03T10:55:15.250Z,15.10
2023-03-03T10:58:02.252Z,14.70
2023-03-03T11:00:35.465Z,15.32
2023-03-03T11:03:29.639Z,15.75
2023-03-03T11:06:15.386Z,15.20
2023-03-03T11:08:54.384Z,15.43
2023-03-03T11:11:36.427Z,16.35
2023-03-03T11:14:54.442Z,15.43
2023-03-03T11:17:38.031Z,16.17
2023-03-03T11:20:23.331Z,15.48
2023-03-03T11:23:23.517Z,15.82
2023-03-03T11:25:56.614Z,15.95
2023-03-03T11:28:29.157Z,15.93
2023-03-03T11:31:07.905Z,16.35
2023-03-03T11:33:39.126Z,16.95
2023-03-03T11:36:18.253Z,15.43
2023-03-03T11:38:53.370Z,17.02
2023-03-03T11:41:32.469Z,17.17
2023-03-03T11:44:09.900Z,16.85
2023-03-03T11:46:51.756Z,16.83
2023-03-03T11:49:18.489Z,16.50
2023-03-03T11:52:12.734Z,16.75
2023-03-03T11:54:49.973Z,16.60
2023-03-03T11:57:23.629Z,17.75
2023-03-03T12:00:18.809Z,15.88
2023-03-03T12:03:04.575Z,16.13
2023-03-03T12:05:56.190Z,15.57
2023-03-03T12:09:00.649Z,15.50
2023-03-03T12:11:48.789Z,15.50
2023-03-03T12:14:30.471Z,15.52
2023-03-03T12:17:13.055Z,15.77
2023-03-03T12:19:59.651Z,15.68
2023-03-03T12:22:37.284Z,16.23
2023-03-03T12:25:41.548Z,16.10
2023-03-03T12:28:25.878Z,16.02
2023-03-03T12:31:25.084Z,15.57
2023-03-03T12:34:01.696Z,15.75
2023-03-03T12:36:49.685Z,15.48
2023-03-03T12:39:35.226Z,15.65
2023-03-03T12:42:24.705Z,15.75
2023-03-03T12:45:24.061Z,14.88
2023-03-03T12:47:55.962Z,13.93
2023-03-03T12:50:47.635Z,13.93
2023-03-03T12:53:26.115Z,14.00
2023-03-03T12:56:04.602Z,13.43
2023-03-03T12:58:46.256Z,13.03
2023-03-03T13:01:28.138Z,12.80
2023-03-03T13:04:10.352Z,12.07
2023-03-03T13:06:52.091Z,12.10
2023-03-03T13:09:37.095Z,12.17
2023-03-03T13:12:08.954Z,12.93
2023-03-03T13:14:44.497Z,12.70
2023-03-03T13:17:19.976Z,12.60
2023-03-03T13:20:00.919Z,12.60
2023-03-03T13:22:30.664Z,13.13
2023-03-03T13:25:07.732Z,12.67
2023-03-03T13:27:40.284Z,12.47
2023-03-03T13:30:16.387Z,13.00
2023-03-03T13:33:10.634Z,12.63
2023-03-03T13:35:53.950Z,12.33
2023-03-03T13:38:24.846Z,12.60
2023-03-03T13:41:04.273Z,11.67
2023-03-03T13:43:40.309Z,12.90
2023-03-03T13:46:21.646Z,12.20
2023-03-03T13:49:15.727Z,12.23
2023-03-03T13:51:51.591Z,12.13
2023-03-03T13:54:39.528Z,12.27
2023-03-03T13:57:15.253Z,12.07
2023-03-03T14:00:19.514Z,12.03
2023-03-03T14:03:20.511Z,12.00
2023-03-03T14:06:02.179Z,10.87
2023-03-03T14:08:47.629Z,11.47
2023-03-03T14:11:41.935Z,10.97
2023-03-03T14:14:43.587Z,12.10
2023-03-03T14:17:55.082Z,11.90
2023-03-03T14:20:28.947Z,11.47
2023-03-03T14:23:10.206Z,9.43
2023-03-03T14:26:04.658Z,11.60
2023-03-03T14:28:46.381Z,10.80
2023-03-03T14:31:26.411Z,10.77
2023-03-03T14:34:11.490Z,11.37
2023-03-03T14:36:43.246Z,12.30
2023-03-03T14:39:28.723Z,12.97
2023-03-03T14:41:57.448Z,13.17
2023-03-03T14:44:30.216Z,12.30
2023-03-03T14:47:08.983Z,12.23
2023-03-03T14:49:38.408Z,10.77
2023-03-03T14:52:20.212Z,12.13
2023-03-03T14:54:49.282Z,12.23
2023-03-03T14:57:21.636Z,12.57
2023-03-03T14:59:58.446Z,12.37
2023-03-03T15:02:30.678Z,12.27
2023-03-03T15:05:26.747Z,13.67
2023-03-03T15:08:15.038Z,13.10
2023-03-03T15:10:44.227Z,13.50
2023-03-03T15:13:33.308Z,13.33
2023-03-03T15:15:59.917Z,12.93
2023-03-03T15:18:28.035Z,12.37
2023-03-03T15:21:18.702Z,12.43
2023-03-03T15:24:06.625Z,12.60
2023-03-03T15:26:35.924Z,11.60
2023-03-03T15:29:07.846Z,12.70
2023-03-03T15:31:50.044Z,13.40
2023-03-03T15:34:31.869Z,12.27
2023-03-03T15:37:04.742Z,12.80
2023-03-03T15:39:37.085Z,13.07
2023-03-03T15:42:15.796Z,12.43
2023-03-03T15:44:58.929Z,11.73
2023-03-03T15:48:03.980Z,13.67
2023-03-03T15:50:33.387Z,12.33
2023-03-03T15:53:27.464Z,12.77
2023-03-03T15:56:10.953Z,12.93
2023-03-03T15:59:02.601Z,13.43
2023-03-03T16:01:41.665Z,12.87
2023-03-03T16:04:15.443Z,13.87
2023-03-03T16:06:53.856Z,13.70
2023-03-03T16:09:59.461Z,13.23
2023-03-03T16:12:59.653Z,11.70
2023-03-03T16:15:29.245Z,12.87
2023-03-03T16:18:20.910Z,13.23
2023-03-03T16:21:08.774Z,12.87
2023-03-03T16:23:47.199Z,12.90
2023-03-03T16:26:25.057Z,13.03
2023-03-03T16:29:08.567Z,12.53
2023-03-03T16:31:54.065Z,12.80
2023-03-03T16:34:42.806Z,12.50
2023-03-03T16:37:21.449Z,13.20
2023-03-03T16:39:53.751Z,13.03
2023-03-03T16:42:26.737Z,12.23
2023-03-03T16:45:15.722Z,12.50
2023-03-03T16:47:58.183Z,11.83
2023-03-03T16:50:40.055Z,12.70
2023-03-03T16:53:32.204Z,12.93
2023-03-03T16:56:17.710Z,11.43
2023-03-03T16:59:37.191Z,11.53
2023-03-03T17:02:25.193Z,11.43
2023-03-03T17:05:00.454Z,10.43
2023-03-03T17:07:46.207Z,10.70
2023-03-03T17:10:24.904Z,10.03
2023-03-03T17:13:13.264Z,9.77
2023-03-03T17:16:05.179Z,9.67
2023-03-03T17:18:44.701Z,9.90
2023-03-03T17:21:53.168Z,9.60
2023-03-03T17:24:57.687Z,10.60
2023-03-03T17:27:33.456Z,10.23
2023-03-03T17:30:22.420Z,11.57
2023-03-03T17:33:07.992Z,10.60
2023-03-03T17:35:56.769Z,10.63
2023-03-03T17:38:38.472Z,10.87
2023-03-03T17:41:20.767Z,10.40
2023-03-03T17:44:15.238Z,9.97
2023-03-03T17:46:51.482Z,10.07
2023-03-03T17:49:43.625Z,10.47
2023-03-03T17:52:35.289Z,10.00
2023-03-03T17:55:17.166Z,10.20
2023-03-03T17:58:02.538Z,10.40
2023-03-03T18:00:50.251Z,10.60
2023-03-03T18:03:22.808Z,10.63
2023-03-03T18:06:05.059Z,11.90
2023-03-03T18:08:55.753Z,11.20
2023-03-03T18:11:41.400Z,11.57
2023-03-03T18:14:23.224Z,15.20
2023-03-03T18:17:09.841Z,16.57
2023-03-03T18:19:56.508Z,15.03
2023-03-03T18:22:29.102Z,14.90
2023-03-03T18:25:08.279Z,14.83
2023-03-03T18:27:37.488Z,15.30
2023-03-03T18:30:20.501Z,14.50
2023-03-03T18:32:56.418Z,13.70
2023-03-03T18:35:40.091Z,14.30
2023-03-03T18:38:16.014Z,16.07
2023-03-03T18:40:57.772Z,15.07
2023-03-03T18:43:39.432Z,16.40
2023-03-03T18:46:10.670Z,16.27
2023-03-03T18:49:01.448Z,16.83
2023-03-03T18:51:49.239Z,18.40
2023-03-03T18:54:20.908Z,18.60
2023-03-03T18:56:50.195Z,17.53
2023-03-03T18:59:35.209Z,18.67
2023-03-03T19:02:32.551Z,24.47
2023-03-03T19:05:09.004Z,22.03
2023-03-03T19:07:41.670Z,19.70
2023-03-03T19:10:34.263Z,18.53
2023-03-03T19:13:01.015Z,17.10
2023-03-03T19:15:51.279Z,17.50
2023-03-03T19:18:25.605Z,17.80
2023-03-03T19:20:59.457Z,18.53
2023-03-03T19:23:48.056Z,18.13
2023-03-03T19:26:29.642Z,18.13
2023-03-03T19:29:31.514Z,18.17
2023-03-03T19:32:19.859Z,19.73
2023-03-03T19:35:01.577Z,19.70
2023-03-03T19:37:37.300Z,19.90
2023-03-03T19:40:27.015Z,20.63
2023-03-03T19:43:22.217Z,19.97
2023-03-03T19:45:51.836Z,18.60
2023-03-03T19:48:34.201Z,19.20
2023-03-03T19:51:24.209Z,19.10
2023-03-03T19:54:12.191Z,19.27
2023-03-03T19:56:49.911Z,18.47
2023-03-03T19:59:36.594Z,19.73
2023-03-03T20:02:26.620Z,19.33
2023-03-03T20:05:13.814Z,19.13
2023-03-03T20:07:50.082Z,19.63
2023-03-03T20:10:16.663Z,19.43
2023-03-03T20:13:08.117Z,19.67
2023-03-03T20:15:59.078Z,20.53
2023-03-03T20:18:28.387Z,19.77
2023-03-03T20:21:07.357Z,20.20
2023-03-03T20:23:49.017Z,19.80
2023-03-03T20:26:19.622Z,19.47
2023-03-03T20:28:55.371Z,18.77
2023-03-03T20:31:36.325Z,20.23
2023-03-03T20:34:32.099Z,20.47
2023-03-03T20:37:08.915Z,19.30
2023-03-03T20:40:02.483Z,20.23
2023-03-03T20:43:06.531Z,21.17
2023-03-03T20:45:59.609Z,21.63
2023-03-03T20:48:50.977Z,27.60
2023-03-03T20:51:42.873Z,21.10
2023-03-03T20:54:15.661Z,21.27
2023-03-03T20:57:00.632Z,20.93
2023-03-03T20:59:40.755Z,21.10
2023-03-03T21:02:25.683Z,19.47
2023-03-03T21:05:22.567Z,19.77
2023-03-03T21:07:56.906Z,20.70
2023-03-03T21:10:35.811Z,21.03
2023-03-03T21:13:41.205Z,22.40
2023-03-03T21:16:12.532Z,22.23
2023-03-03T21:18:39.547Z,21.70
2023-03-03T21:21:08.007Z,19.90
2023-03-03T21:23:34.753Z,20.77
2023-03-03T21:26:01.446Z,19.40
2023-03-03T21:28:33.560Z,20.77
2023-03-03T21:31:09.159Z,22.77
2023-03-03T21:33:42.098Z,21.60
2023-03-03T21:36:10.898Z,23.60
2023-03-03T21:38:39.101Z,23.57
2023-03-03T21:41:07.618Z,22.47
2023-03-03T21:43:36.702Z,22.33
2023-03-03T21:46:03.520Z,22.90
2023-03-03T21:48:30.596Z,21.60
2023-03-03T21:50:57.243Z,21.50
2023-03-03T21:53:26.458Z,21.83
2023-03-03T21:55:53.722Z,21.37
2023-03-03T21:58:20.412Z,20.93
2023-03-03T22:00:47.102Z,20.47
2023-03-03T22:03:15.389Z,22.00
2023-03-03T22:05:42.106Z,21.10
2023-03-03T22:08:09.700Z,22.20
2023-03-03T22:10:36.348Z,22.47
2023-03-03T22:13:03.116Z,21.47
2023-03-03T22:15:33.178Z,21.80
2023-03-03T22:18:00.677Z,21.80
2023-03-03T22:20:27.468Z,21.23
2023-03-03T22:22:54.261Z,22.70
2023-03-03T22:25:20.935Z,22.23
2023-03-03T22:27:47.624Z,21.53
2023-03-03T22:30:14.476Z,22.70
2023-03-03T22:32:41.144Z,22.13
2023-03-03T22:35:08.582Z,22.77
2023-03-03T22:37:35.384Z,23.73
2023-03-03T22:40:02.462Z,22.63
2023-03-03T22:42:29.309Z,22.27
2023-03-03T22:44:55.898Z,22.50
2023-03-03T22:47:22.543Z,22.60
2023-03-03T22:49:49.154Z,21.97
2023-03-03T22:52:15.825Z,22.03
2023-03-03T22:54:42.527Z,22.03
2023-03-03T22:57:09.266Z,21.90
2023-03-03T22:59:35.925Z,22.30
2023-03-03T23:02:02.825Z,22.73
2023-03-03T23:04:29.645Z,22.87
2023-03-03T23:06:57.143Z,22.43
2023-03-03T23:09:23.923Z,22.27
2023-03-03T23:11:50.599Z,21.87
2023-03-03T23:14:17.507Z,21.17
2023-03-03T23:16:45.447Z,22.13
2023-03-03T23:19:12.195Z,21.67
2023-03-03T23:21:39.042Z,21.27
2023-03-03T23:24:06.499Z,22.77
2023-03-03T23:26:33.166Z,23.83
2023-03-03T23:28:59.786Z,22.97
2023-03-03T23:31:26.999Z,21.83
2023-03-03T23:33:53.666Z,22.33
2023-03-03T23:36:20.335Z,22.33
2023-03-03T23:38:47.074Z,21.80
2023-03-03T23:41:13.709Z,22.67
2023-03-03T23:43:40.751Z,22.07
2023-03-03T23:46:07.422Z,21.37
2023-03-03T23:48:34.056Z,22.13
2023-03-03T23:51:01.487Z,21.80
2023-03-03T23:53:28.113Z,21.87
2023-03-03T23:55:54.881Z,20.83
2023-03-03T23:58:21.507Z,21.23
